createdAt,value
2023-04-15T00:06:00.179Z,99758.47
2023-04-15T00:16:09.175Z,99761.84
2023-04-15T00:26:13.621Z,99764.72
2023-04-15T00:36:15.813Z,99757.28
2023-04-15T00:46:20.842Z,99756.34
2023-04-15T00:56:24.629Z,99759.28
2023-04-15T01:06:32.533Z,99759.03
2023-04-15T01:16:34.658Z,99757.22
2023-04-15T01:26:38.865Z,99765.09
2023-04-15T01:36:42.193Z,99752.75
2023-04-15T01:46:44.126Z,99754.06
2023-04-15T01:56:46.020Z,99760.47
2023-04-15T02:06:47.973Z,99767.72
2023-04-15T02:16:49.920Z,99766.22
2023-04-15T02:26:58.582Z,99755.09
2023-04-15T02:37:00.745Z,99758.47
2023-04-15T02:47:03.741Z,99759.31
2023-04-15T02:57:07.055Z,99748.22
2023-04-15T03:07:09.975Z,99751.63
2023-04-15T03:17:11.857Z,99751.22
2023-04-15T03:27:14.018Z,99758.84
2023-04-15T03:37:15.875Z,99757.88
2023-04-15T03:47:17.720Z,99749.22
2023-04-15T03:57:19.597Z,99760.88
2023-04-15T04:07:24.274Z,99761.66
2023-04-15T04:17:26.339Z,99756.69
2023-04-15T04:27:30.228Z,99761.94
2023-04-15T04:37:32.189Z,99762.75
2023-04-15T04:47:38.141Z,99799.56
2023-04-15T04:57:40.037Z,99763.47
2023-04-15T05:07:42.358Z,99771.09
2023-04-15T05:17:44.955Z,99761.66
2023-04-15T05:27:47.048Z,99775.34
2023-04-15T05:37:48.974Z,99770.94
2023-04-15T05:47:53.963Z,99780.31
2023-04-15T05:57:56.111Z,99788.41
2023-04-15T06:07:58.068Z,99782.59
2023-04-15T06:18:00.198Z,99788.53
2023-04-15T06:28:02.154Z,99794.53
2023-04-15T06:38:04.118Z,99797.81
2023-04-15T06:48:23.477Z,99808.22
2023-04-15T06:58:34.280Z,99815.94
2023-04-15T07:08:37.346Z,99819.34
2023-04-15T07:18:39.357Z,99834.72
2023-04-15T07:28:41.817Z,99834.69
2023-04-15T07:38:43.758Z,99821.66
2023-04-15T07:48:48.794Z,99833.19
2023-04-15T07:58:52.777Z,99826.03
2023-04-15T08:08:57.228Z,99830.34
2023-04-15T08:18:59.271Z,99828.56
2023-04-15T08:29:03.449Z,99833.56
2023-04-15T08:39:05.590Z,99829.84
2023-04-15T08:49:11.104Z,99829.63
2023-04-15T08:59:15.176Z,99835.56
2023-04-15T09:09:23.221Z,99848.69
2023-04-15T09:19:33.900Z,99842.66
2023-04-15T09:29:37.453Z,99845.31
2023-04-15T09:39:50.299Z,99846.91
2023-04-15T09:49:59.501Z,99847.94
2023-04-15T10:00:08.480Z,99852.91
2023-04-15T10:10:11.861Z,99854.13
2023-04-15T10:20:30.260Z,99855.34
2023-04-15T10:30:34.015Z,99861.09
2023-04-15T10:40:40.177Z,99858.06
2023-04-15T10:50:56.089Z,99865.00
2023-04-15T11:01:02.980Z,99872.81
2023-04-15T11:11:14.205Z,99875.94
2023-04-15T11:21:16.708Z,99871.06
2023-04-15T11:31:20.384Z,99882.94
2023-04-15T11:41:23.901Z,99885.41
2023-04-15T11:51:42.838Z,99888.19
2023-04-15T12:01:47.847Z,99886.97
2023-04-15T12:12:19.041Z,99898.38
2023-04-15T12:22:22.459Z,99894.25
2023-04-15T12:32:28.635Z,99903.47
2023-04-15T12:42:30.592Z,99927.72
2023-04-15T12:52:41.445Z,99936.59
2023-04-15T13:02:44.879Z,99930.66
2023-04-15T13:13:03.395Z,99933.00
2023-04-15T13:23:05.298Z,99929.50
2023-04-15T13:33:07.367Z,99959.69
2023-04-15T13:43:15.254Z,99963.38
2023-04-15T13:53:17.332Z,99966.00
2023-04-15T14:03:19.385Z,99982.00
2023-04-15T14:13:21.593Z,99974.72
2023-04-15T14:23:24.022Z,99998.84
2023-04-15T14:33:26.257Z,99997.66
2023-04-15T14:43:28.299Z,99990.97
2023-04-15T14:53:38.900Z,99998.84
2023-04-15T15:04:18.526Z,100001.41
2023-04-15T15:14:22.336Z,100021.25
2023-04-15T15:24:27.355Z,100027.69
2023-04-15T15:34:29.392Z,100031.25
2023-04-15T15:44:38.605Z,100033.94
2023-04-15T15:54:41.480Z,100019.81
2023-04-15T16:04:43.887Z,100036.66
2023-04-15T16:15:07.705Z,100048.31
2023-04-15T16:25:11.058Z,100061.19
2023-04-15T16:35:22.270Z,100066.38
2023-04-15T16:45:24.874Z,100090.84
2023-04-15T16:55:27.290Z,100099.56
2023-04-15T17:05:54.938Z,100126.63
2023-04-15T17:16:02.992Z,100133.88
2023-04-15T17:26:15.762Z,100147.25
2023-04-15T17:36:18.596Z,100144.13
2023-04-15T17:46:25.170Z,100152.19
2023-04-15T17:56:29.474Z,100192.72
2023-04-15T18:06:36.128Z,100205.72
2023-04-15T18:16:50.888Z,100220.25
2023-04-15T18:26:54.021Z,100228.19
2023-04-15T18:37:00.935Z,100244.66
2023-04-15T18:47:06.780Z,100237.28
2023-04-15T18:57:09.388Z,100243.72
2023-04-15T19:07:13.953Z,100259.28
2023-04-15T19:17:19.243Z,100281.53
2023-04-15T19:27:25.485Z,100295.34
2023-04-15T19:37:36.991Z,100294.75
2023-04-15T19:47:48.793Z,100314.28
2023-04-15T19:57:57.311Z,100322.94
2023-04-15T20:08:02.083Z,100322.47
2023-04-15T20:18:06.255Z,100334.53
2023-04-15T20:28:08.678Z,100335.38
2023-04-15T20:38:11.276Z,100328.31
2023-04-15T20:48:16.953Z,100323.56
2023-04-15T20:58:21.415Z,100337.25
2023-04-15T21:08:29.522Z,100340.09
2023-04-15T21:18:32.927Z,100349.66
2023-04-15T21:28:35.271Z,100351.47
2023-04-15T21:38:37.165Z,100353.13
2023-04-15T21:48:40.357Z,100357.63
2023-04-15T21:58:42.241Z,100376.50
2023-04-15T22:08:55.327Z,100379.16
2023-04-15T22:18:59.303Z,100386.09
2023-04-15T22:29:02.225Z,100397.19
2023-04-15T22:39:04.819Z,100404.97
2023-04-15T22:49:10.494Z,100411.03
2023-04-15T22:59:12.379Z,100422.22
2023-04-15T23:09:14.349Z,100430.03
2023-04-15T23:19:16.543Z,100426.72
2023-04-15T23:29:18.544Z,100429.31
2023-04-15T23:39:20.976Z,100426.81
2023-04-15T23:49:22.920Z,100420.78
2023-04-15T23:59:24.832Z,100432.88
